createdAt,value
2023-01-01T00:00:49.336Z,13.90
2023-01-01T00:03:17.213Z,13.90
2023-01-01T00:05:45.026Z,13.80
2023-01-01T00:08:12.789Z,13.80
2023-01-01T00:10:40.545Z,13.80
2023-01-01T00:13:08.381Z,13.90
2023-01-01T00:15:36.565Z,13.90
2023-01-01T00:18:04.473Z,13.90
2023-01-01T00:20:35.414Z,13.80
2023-01-01T00:23:03.757Z,13.80
2023-01-01T00:25:32.617Z,13.80
2023-01-01T00:28:00.943Z,13.80
2023-01-01T00:30:29.062Z,13.80
2023-01-01T00:32:56.940Z,13.80
2023-01-01T00:35:25.694Z,13.80
2023-01-01T00:37:54.646Z,13.80
2023-01-01T00:40:22.971Z,13.80
2023-01-01T00:42:50.779Z,13.80
2023-01-01T00:45:21.747Z,13.70
2023-01-01T00:47:54.224Z,13.70
2023-01-01T00:50:23.143Z,13.70
2023-01-01T00:52:50.974Z,13.60
2023-01-01T00:55:18.785Z,13.60
2023-01-01T00:57:46.554Z,13.60
2023-01-01T01:00:15.422Z,13.60
2023-01-01T01:02:43.243Z,13.60
2023-01-01T01:05:11.207Z,13.60
2023-01-01T01:07:39.936Z,13.60
2023-01-01T01:10:09.638Z,13.60
2023-01-01T01:12:37.682Z,13.50
2023-01-01T01:15:07.210Z,13.50
2023-01-01T01:17:35.468Z,13.50
2023-01-01T01:20:04.657Z,13.50
2023-01-01T01:22:34.622Z,13.40
2023-01-01T01:25:02.538Z,13.40
2023-01-01T01:27:30.549Z,13.40
2023-01-01T01:29:58.459Z,13.30
2023-01-01T01:32:26.942Z,13.40
2023-01-01T01:34:54.872Z,13.30
2023-01-01T01:37:22.628Z,13.30
2023-01-01T01:39:53.817Z,13.30
2023-01-01T01:42:22.372Z,13.30
2023-01-01T01:45:01.425Z,13.30
2023-01-01T01:47:46.492Z,13.20
2023-01-01T01:50:38.890Z,13.30
2023-01-01T01:53:27.393Z,13.20
2023-01-01T01:56:00.810Z,13.20
2023-01-01T01:58:31.601Z,13.20
2023-01-01T02:01:00.653Z,13.20
2023-01-01T02:03:32.596Z,13.20
2023-01-01T02:06:01.608Z,13.30
2023-01-01T02:08:30.208Z,13.30
2023-01-01T02:10:58.008Z,13.20
2023-01-01T02:13:25.761Z,13.20
2023-01-01T02:16:22.453Z,13.20
2023-01-01T02:19:20.900Z,13.20
2023-01-01T02:22:36.353Z,13.20
2023-01-01T02:25:14.106Z,13.20
2023-01-01T02:27:48.562Z,13.20
2023-01-01T02:30:16.894Z,13.20
2023-01-01T02:33:02.131Z,13.20
2023-01-01T02:35:58.624Z,13.20
2023-01-01T02:38:45.002Z,13.20
2023-01-01T02:41:27.403Z,13.20
2023-01-01T02:48:52.620Z,13.10
2023-01-01T02:51:23.081Z,13.10
2023-01-01T02:54:18.845Z,13.10
2023-01-01T02:57:05.044Z,13.10
2023-01-01T03:00:04.648Z,13.10
2023-01-01T03:03:08.590Z,13.10
2023-01-01T03:06:16.836Z,13.10
2023-01-01T03:09:17.996Z,13.10
2023-01-01T03:12:00.214Z,13.10
2023-01-01T03:14:40.532Z,13.10
2023-01-01T03:17:36.275Z,13.00
2023-01-01T03:20:13.944Z,13.00
2023-01-01T03:25:23.786Z,13.00
2023-01-01T03:27:59.354Z,13.00
2023-01-01T03:30:29.923Z,13.00
2023-01-01T03:33:08.064Z,13.00
2023-01-01T03:36:30.188Z,13.00
2023-01-01T03:39:21.247Z,13.10
2023-01-01T03:42:17.928Z,13.00
2023-01-01T03:45:01.803Z,13.00
2023-01-01T03:47:30.588Z,13.00
2023-01-01T03:49:59.740Z,13.00
2023-01-01T03:53:08.096Z,13.00
2023-01-01T03:55:45.668Z,13.10
2023-01-01T03:58:35.398Z,13.00
2023-01-01T04:01:27.185Z,13.10
2023-01-01T04:03:55.957Z,13.10
2023-01-01T04:06:23.897Z,13.10
2023-01-01T04:08:57.151Z,13.10
2023-01-01T04:11:49.311Z,13.10
2023-01-01T04:14:35.293Z,13.10
2023-01-01T04:17:05.033Z,13.10
2023-01-01T04:19:33.106Z,13.10
2023-01-01T04:22:02.310Z,13.10
2023-01-01T04:24:30.541Z,13.00
2023-01-01T04:26:58.401Z,13.00
2023-01-01T04:29:26.501Z,13.00
2023-01-01T04:31:54.380Z,13.00
2023-01-01T04:34:22.093Z,13.00
2023-01-01T04:36:49.855Z,13.00
2023-01-01T04:39:17.761Z,12.90
2023-01-01T04:41:47.513Z,12.90
2023-01-01T04:44:15.256Z,12.90
2023-01-01T04:46:43.067Z,12.90
2023-01-01T04:49:10.825Z,12.90
2023-01-01T04:51:38.645Z,12.90
2023-01-01T04:54:06.522Z,12.90
2023-01-01T04:56:34.625Z,12.90
2023-01-01T04:59:02.358Z,12.90
2023-01-01T05:01:31.307Z,12.90
2023-01-01T05:04:00.300Z,12.90
2023-01-01T05:06:29.184Z,12.90
2023-01-01T05:08:57.693Z,12.90
2023-01-01T05:11:28.872Z,13.00
2023-01-01T05:14:00.151Z,13.00
2023-01-01T05:16:31.373Z,13.00
2023-01-01T05:18:59.614Z,13.00
2023-01-01T05:21:33.609Z,13.00
2023-01-01T05:24:05.117Z,13.00
2023-01-01T05:26:36.437Z,13.00
2023-01-01T05:29:08.932Z,13.10
2023-01-01T05:31:41.392Z,13.00
2023-01-01T05:36:39.090Z,13.10
2023-01-01T05:39:12.711Z,13.10
2023-01-01T05:41:41.788Z,13.10
2023-01-01T05:44:10.476Z,13.10
2023-01-01T05:46:38.454Z,13.10
2023-01-01T05:49:06.192Z,13.10
2023-01-01T05:54:00.721Z,13.10
2023-01-01T05:56:29.591Z,13.10
2023-01-01T05:58:57.502Z,13.00
2023-01-01T06:01:31.279Z,13.10
2023-01-01T06:03:59.902Z,13.00
2023-01-01T06:06:33.216Z,13.00
2023-01-01T06:09:04.327Z,13.00
2023-01-01T06:11:33.070Z,13.00
2023-01-01T06:14:01.503Z,13.00
2023-01-01T06:16:31.319Z,13.10
2023-01-01T06:19:00.037Z,13.10
2023-01-01T06:21:29.650Z,13.10
2023-01-01T06:23:59.703Z,13.10
2023-01-01T06:26:33.402Z,13.10
2023-01-01T06:29:04.357Z,13.10
2023-01-01T06:31:37.050Z,13.10
2023-01-01T06:34:08.538Z,13.10
2023-01-01T06:36:36.382Z,13.10
2023-01-01T06:39:04.533Z,13.10
2023-01-01T06:41:33.071Z,13.10
2023-01-01T06:44:02.200Z,13.10
2023-01-01T06:46:36.162Z,13.10
2023-01-01T06:49:09.898Z,13.10
2023-01-01T06:51:43.627Z,13.10
2023-01-01T06:54:11.398Z,13.10
2023-01-01T06:56:40.106Z,13.10
2023-01-01T06:59:07.864Z,13.10
2023-01-01T07:01:39.893Z,13.10
2023-01-01T07:04:16.647Z,13.10
2023-01-01T07:06:44.477Z,13.10
2023-01-01T07:09:12.370Z,13.10
2023-01-01T07:11:40.723Z,13.10
2023-01-01T07:14:08.432Z,13.10
2023-01-01T07:16:36.301Z,13.10
2023-01-01T07:19:05.212Z,13.10
2023-01-01T07:21:38.822Z,13.10
2023-01-01T07:24:09.979Z,13.10
2023-01-01T07:26:37.722Z,13.10
2023-01-01T07:29:07.887Z,13.10
2023-01-01T07:31:44.279Z,13.00
2023-01-01T07:34:19.213Z,13.10
2023-01-01T07:36:47.471Z,13.10
2023-01-01T07:39:15.205Z,13.10
2023-01-01T07:41:43.495Z,13.10
2023-01-01T07:44:14.838Z,13.10
2023-01-01T07:46:42.671Z,13.10
2023-01-01T07:49:10.447Z,13.10
2023-01-01T07:51:38.240Z,13.10
2023-01-01T07:54:07.348Z,13.20
2023-01-01T07:56:36.147Z,13.20
2023-01-01T07:59:05.122Z,13.10
2023-01-01T08:01:37.429Z,13.20
2023-01-01T08:04:06.034Z,13.20
2023-01-01T08:06:33.853Z,13.10
2023-01-01T08:09:01.605Z,13.20
2023-01-01T08:11:29.706Z,13.20
2023-01-01T08:13:57.447Z,13.20
2023-01-01T08:16:25.214Z,13.20
2023-01-01T08:18:52.957Z,13.20
2023-01-01T08:21:20.677Z,13.20
2023-01-01T08:23:48.385Z,13.20
2023-01-01T08:26:17.896Z,13.20
2023-01-01T08:28:45.658Z,13.20
2023-01-01T08:31:13.481Z,13.20
2023-01-01T08:33:41.178Z,13.20
2023-01-01T08:36:13.273Z,13.10
2023-01-01T08:38:41.256Z,13.10
2023-01-01T08:41:09.932Z,13.10
2023-01-01T08:43:37.670Z,13.10
2023-01-01T08:46:05.534Z,13.10
2023-01-01T08:48:33.306Z,13.10
2023-01-01T08:51:02.168Z,13.10
2023-01-01T08:53:32.001Z,13.20
2023-01-01T08:56:03.985Z,13.10
2023-01-01T08:58:33.201Z,13.20
2023-01-01T09:01:01.075Z,13.20
2023-01-01T09:03:28.947Z,13.20
2023-01-01T09:05:57.241Z,13.20
2023-01-01T09:08:25.668Z,13.20
2023-01-01T09:10:57.731Z,13.30
2023-01-01T09:13:25.728Z,13.30
2023-01-01T09:15:53.662Z,13.30
2023-01-01T09:18:21.706Z,13.30
2023-01-01T09:20:50.113Z,13.40
2023-01-01T09:23:17.812Z,13.40
2023-01-01T09:25:45.576Z,13.40
2023-01-01T09:28:14.425Z,13.50
2023-01-01T09:30:42.213Z,13.50
2023-01-01T09:33:09.896Z,13.60
2023-01-01T09:35:38.841Z,13.60
2023-01-01T09:38:06.655Z,13.70
2023-01-01T09:41:21.699Z,13.70
2023-01-01T09:44:15.822Z,13.80
2023-01-01T09:46:43.947Z,13.80
2023-01-01T09:49:27.188Z,13.80
2023-01-01T09:52:01.152Z,13.90
2023-01-01T09:54:34.165Z,13.90
2023-01-01T09:57:06.743Z,14.00
2023-01-01T09:59:34.493Z,14.00
2023-01-01T10:02:36.443Z,14.10
2023-01-01T10:05:15.852Z,14.10
2023-01-01T10:07:58.488Z,14.10
2023-01-01T10:10:38.641Z,14.20
2023-01-01T10:13:40.820Z,14.20
2023-01-01T10:16:47.234Z,14.20
2023-01-01T10:20:32.069Z,14.30
2023-01-01T10:23:29.794Z,14.30
2023-01-01T10:26:00.741Z,14.30
2023-01-01T10:29:02.660Z,14.30
2023-01-01T10:31:45.976Z,14.40
2023-01-01T10:34:24.358Z,14.50
2023-01-01T10:36:58.849Z,14.50
2023-01-01T10:39:28.008Z,14.50
2023-01-01T10:41:58.276Z,14.50
2023-01-01T10:44:34.769Z,14.50
2023-01-01T10:47:25.600Z,14.60
2023-01-01T10:50:00.450Z,14.60
2023-01-01T10:52:45.303Z,14.70
2023-01-01T10:55:27.187Z,14.80
2023-01-01T10:57:54.949Z,14.80
2023-01-01T11:00:28.902Z,14.90
2023-01-01T11:03:19.348Z,14.80
2023-01-01T11:06:16.112Z,14.90
2023-01-01T11:08:53.838Z,14.90
2023-01-01T11:11:46.299Z,14.90
2023-01-01T11:14:42.852Z,14.90
2023-01-01T11:17:10.987Z,15.00
2023-01-01T11:19:45.691Z,15.00
2023-01-01T11:22:50.395Z,15.00
2023-01-01T11:25:31.805Z,15.10
2023-01-01T11:28:21.906Z,15.10
2023-01-01T11:31:07.658Z,15.20
2023-01-01T11:33:59.188Z,15.30
2023-01-01T11:36:35.454Z,15.20
2023-01-01T11:39:26.587Z,15.30
2023-01-01T11:41:58.217Z,15.30
2023-01-01T11:44:46.044Z,15.30
2023-01-01T11:47:26.905Z,15.40
2023-01-01T11:50:09.072Z,15.40
2023-01-01T11:52:43.369Z,15.40
2023-01-01T11:55:24.934Z,15.40
2023-01-01T11:58:04.428Z,15.50
2023-01-01T12:00:36.716Z,15.50
2023-01-01T12:03:35.554Z,15.50
2023-01-01T12:06:29.660Z,15.50
2023-01-01T12:09:11.992Z,15.50
2023-01-01T12:11:57.472Z,15.60
2023-01-01T12:15:25.712Z,15.60
2023-01-01T12:18:18.998Z,15.60
2023-01-01T12:21:29.323Z,15.70
2023-01-01T12:23:57.131Z,15.70
2023-01-01T12:26:53.154Z,15.80
2023-01-01T12:29:53.314Z,15.80
2023-01-01T12:33:15.142Z,15.90
2023-01-01T12:36:27.010Z,16.00
2023-01-01T12:39:34.777Z,16.00
2023-01-01T12:42:18.430Z,16.00
2023-01-01T12:45:12.367Z,16.10
2023-01-01T12:48:13.667Z,16.10
2023-01-01T12:50:51.440Z,16.20
2023-01-01T12:53:37.012Z,16.20
2023-01-01T12:56:22.557Z,16.30
2023-01-01T12:58:58.893Z,16.30
2023-01-01T13:01:33.921Z,16.30
2023-01-01T13:04:20.181Z,16.40
2023-01-01T13:06:57.454Z,16.40
2023-01-01T13:09:29.312Z,16.40
2023-01-01T13:12:14.541Z,16.50
2023-01-01T13:14:45.725Z,16.50
2023-01-01T13:17:30.198Z,16.60
2023-01-01T13:20:24.090Z,16.70
2023-01-01T13:22:51.946Z,16.60
2023-01-01T13:25:23.758Z,16.70
2023-01-01T13:27:57.378Z,16.70
2023-01-01T13:30:41.635Z,16.70
2023-01-01T13:33:31.254Z,16.70
2023-01-01T13:36:08.494Z,16.60
2023-01-01T13:38:59.503Z,16.70
2023-01-01T13:41:30.245Z,16.70
2023-01-01T13:44:00.872Z,16.70
2023-01-01T13:46:44.711Z,16.70
2023-01-01T13:49:53.489Z,16.70
2023-01-01T13:52:58.098Z,16.70
2023-01-01T13:55:51.104Z,16.70
2023-01-01T13:58:56.233Z,16.70
2023-01-01T14:01:29.795Z,16.60
2023-01-01T14:03:58.765Z,16.60
2023-01-01T14:06:41.876Z,16.60
2023-01-01T14:09:14.837Z,16.60
2023-01-01T14:11:42.994Z,16.60
2023-01-01T14:14:28.622Z,16.60
2023-01-01T14:17:00.440Z,16.60
2023-01-01T14:19:29.338Z,16.60
2023-01-01T14:21:57.863Z,16.50
2023-01-01T14:24:26.828Z,16.50
2023-01-01T14:26:55.571Z,16.60
2023-01-01T14:29:29.607Z,16.60
2023-01-01T14:32:11.908Z,16.60
2023-01-01T14:34:39.600Z,16.60
2023-01-01T14:37:23.935Z,16.60
2023-01-01T14:40:28.113Z,16.60
2023-01-01T14:43:07.896Z,16.70
2023-01-01T14:45:38.913Z,16.70
2023-01-01T14:48:07.182Z,16.60
2023-01-01T14:50:36.000Z,16.60
2023-01-01T14:53:13.233Z,16.50
2023-01-01T14:55:45.032Z,16.50
2023-01-01T14:58:27.750Z,16.40
2023-01-01T15:01:15.874Z,16.40
2023-01-01T15:03:56.388Z,16.40
2023-01-01T15:06:25.235Z,16.30
2023-01-01T15:08:53.864Z,16.30
2023-01-01T15:11:28.358Z,16.20
2023-01-01T15:14:01.299Z,16.20
2023-01-01T15:16:34.739Z,16.20
2023-01-01T15:19:18.278Z,16.10
2023-01-01T15:21:46.879Z,16.00
2023-01-01T15:24:29.293Z,16.00
2023-01-01T15:27:03.683Z,15.90
2023-01-01T15:29:50.581Z,15.80
2023-01-01T15:32:33.003Z,15.80
2023-01-01T15:35:32.602Z,15.70
2023-01-01T15:38:10.360Z,15.60
2023-01-01T15:40:38.411Z,15.50
2023-01-01T15:43:18.182Z,15.30
2023-01-01T15:46:00.632Z,15.20
2023-01-01T15:48:39.549Z,15.10
2023-01-01T15:51:17.711Z,14.90
2023-01-01T15:53:54.669Z,14.80
2023-01-01T15:56:30.129Z,14.70
2023-01-01T15:59:14.831Z,14.60
2023-01-01T16:01:43.829Z,14.60
2023-01-01T16:04:27.656Z,14.50
2023-01-01T16:06:58.784Z,14.40
2023-01-01T16:09:26.653Z,14.40
2023-01-01T16:11:57.548Z,14.30
2023-01-01T16:14:25.679Z,14.30
2023-01-01T16:17:00.997Z,14.30
2023-01-01T16:19:31.937Z,14.40
2023-01-01T16:21:59.795Z,14.30
2023-01-01T16:24:28.723Z,14.30
2023-01-01T16:26:56.500Z,14.30
2023-01-01T16:29:24.211Z,14.30
2023-01-01T16:31:52.441Z,14.40
2023-01-01T16:34:20.214Z,14.40
2023-01-01T16:36:49.664Z,14.40
2023-01-01T16:39:17.400Z,14.40
2023-01-01T16:41:45.464Z,14.40
2023-01-01T16:44:16.339Z,14.40
2023-01-01T16:46:44.394Z,14.40
2023-01-01T16:49:12.231Z,14.40
2023-01-01T16:51:43.738Z,14.40
2023-01-01T16:54:12.063Z,14.40
2023-01-01T16:56:39.836Z,14.40
2023-01-01T16:59:07.567Z,14.40
2023-01-01T17:01:35.548Z,14.30
2023-01-01T17:04:03.593Z,14.20
2023-01-01T17:06:31.478Z,14.20
2023-01-01T17:09:00.701Z,14.00
2023-01-01T17:11:28.583Z,13.90
2023-01-01T17:13:59.633Z,13.80
2023-01-01T17:16:38.331Z,13.60
2023-01-01T17:19:16.560Z,13.50
2023-01-01T17:21:47.968Z,13.40
2023-01-01T17:24:18.319Z,13.30
2023-01-01T17:26:50.725Z,13.20
2023-01-01T17:29:19.382Z,13.20
2023-01-01T17:31:47.381Z,13.10
2023-01-01T17:34:15.419Z,13.00
2023-01-01T17:36:45.031Z,13.00
2023-01-01T17:39:15.405Z,12.90
2023-01-01T17:41:44.589Z,12.90
2023-01-01T17:44:12.403Z,12.90
2023-01-01T17:46:40.763Z,12.90
2023-01-01T17:49:09.975Z,13.00
2023-01-01T17:51:39.465Z,13.00
2023-01-01T17:54:10.331Z,13.00
2023-01-01T17:56:38.153Z,13.00
2023-01-01T17:59:06.072Z,12.90
2023-01-01T18:01:35.779Z,13.00
2023-01-01T18:04:07.372Z,13.00
2023-01-01T18:06:42.109Z,13.00
2023-01-01T18:09:13.719Z,13.00
2023-01-01T18:11:42.175Z,13.10
2023-01-01T18:14:12.168Z,13.10
2023-01-01T18:16:44.077Z,13.20
2023-01-01T18:19:12.163Z,13.30
2023-01-01T18:21:40.062Z,13.30
2023-01-01T18:24:13.992Z,13.30
2023-01-01T18:26:42.681Z,13.30
2023-01-01T18:29:10.514Z,13.30
2023-01-01T18:31:38.370Z,13.30
2023-01-01T18:34:06.997Z,13.40
2023-01-01T18:36:35.470Z,13.40
2023-01-01T18:39:26.246Z,13.40
2023-01-01T18:42:22.555Z,13.50
2023-01-01T18:44:51.823Z,13.50
2023-01-01T18:47:20.697Z,13.60
2023-01-01T18:49:51.991Z,13.60
2023-01-01T18:52:29.081Z,13.60
2023-01-01T18:55:23.021Z,13.60
2023-01-01T18:58:06.439Z,13.60
2023-01-01T19:00:36.469Z,13.70
2023-01-01T19:03:13.976Z,13.70
2023-01-01T19:05:42.004Z,13.70
2023-01-01T19:08:09.605Z,13.70
2023-01-01T19:10:47.370Z,13.70
2023-01-01T19:13:28.033Z,13.70
2023-01-01T19:16:08.616Z,13.70
2023-01-01T19:18:39.749Z,13.70
2023-01-01T19:21:21.949Z,13.70
2023-01-01T19:23:58.738Z,13.70
2023-01-01T19:26:28.797Z,13.70
2023-01-01T19:29:01.449Z,13.70
2023-01-01T19:31:29.232Z,13.70
2023-01-01T19:33:57.102Z,13.70
2023-01-01T19:36:25.169Z,13.70
2023-01-01T19:38:52.840Z,13.70
2023-01-01T19:41:20.591Z,13.70
2023-01-01T19:43:48.349Z,13.70
2023-01-01T19:46:16.181Z,13.70
2023-01-01T19:48:44.000Z,13.70
2023-01-01T19:51:11.748Z,13.70
2023-01-01T19:53:39.457Z,13.70
2023-01-01T19:56:07.787Z,13.70
2023-01-01T19:58:35.574Z,13.70
2023-01-01T20:01:03.531Z,13.70
2023-01-01T20:06:18.999Z,13.70
2023-01-01T20:08:46.718Z,13.70
2023-01-01T20:11:15.534Z,13.70
2023-01-01T20:13:43.715Z,13.70
2023-01-01T20:16:11.808Z,13.80
2023-01-01T20:18:39.779Z,13.80
2023-01-01T20:21:27.162Z,13.80
2023-01-01T20:23:56.023Z,13.80
2023-01-01T20:26:26.037Z,13.80
2023-01-01T20:29:12.741Z,13.80
2023-01-01T20:31:40.868Z,13.80
2023-01-01T20:34:08.696Z,13.80
2023-01-01T20:36:54.629Z,13.80
2023-01-01T20:39:22.757Z,13.80
2023-01-01T20:41:50.931Z,13.80
2023-01-01T20:44:18.905Z,13.80
2023-01-01T20:46:48.233Z,13.80
2023-01-01T20:49:17.703Z,13.80
2023-01-01T20:51:54.079Z,13.80
2023-01-01T20:54:22.739Z,13.80
2023-01-01T20:56:50.979Z,13.90
2023-01-01T20:59:34.781Z,13.90
2023-01-01T21:02:10.092Z,13.90
2023-01-01T21:04:39.671Z,13.80
2023-01-01T21:07:10.518Z,13.90
2023-01-01T21:09:39.747Z,13.90
2023-01-01T21:12:08.865Z,13.90
2023-01-01T21:14:36.932Z,13.90
2023-01-01T21:17:24.460Z,13.90
2023-01-01T21:19:56.469Z,14.00
2023-01-01T21:22:24.379Z,14.00
2023-01-01T21:24:55.357Z,14.00
2023-01-01T21:27:34.070Z,14.00
2023-01-01T21:30:01.988Z,14.00
2023-01-01T21:32:49.571Z,14.00
2023-01-01T21:35:35.429Z,14.00
2023-01-01T21:38:18.986Z,14.00
2023-01-01T21:40:59.596Z,14.00
2023-01-01T21:43:48.010Z,13.90
2023-01-01T21:46:33.783Z,13.90
2023-01-01T21:49:33.656Z,13.90
2023-01-01T21:52:02.982Z,13.90
2023-01-01T21:54:37.905Z,13.80
2023-01-01T21:57:25.152Z,13.80
2023-01-01T21:59:54.276Z,13.80
2023-01-01T22:02:35.373Z,13.80
2023-01-01T22:05:31.470Z,13.80
2023-01-01T22:08:17.733Z,13.80
2023-01-01T22:10:45.463Z,13.80
2023-01-01T22:13:17.455Z,13.80
2023-01-01T22:15:46.528Z,13.80
2023-01-01T22:18:27.214Z,13.80
2023-01-01T22:20:56.528Z,13.80
2023-01-01T22:23:43.334Z,13.80
2023-01-01T22:26:27.886Z,13.80
2023-01-01T22:29:04.086Z,13.80
2023-01-01T22:31:36.290Z,13.70
2023-01-01T22:34:06.607Z,13.70
2023-01-01T22:36:36.784Z,13.70
2023-01-01T22:39:29.130Z,13.70
2023-01-01T22:41:57.340Z,13.80
2023-01-01T22:44:27.253Z,13.80
2023-01-01T22:46:58.924Z,13.80
2023-01-01T22:49:39.246Z,13.80
2023-01-01T22:52:08.299Z,13.90
2023-01-01T22:54:36.101Z,13.80
2023-01-01T22:57:04.030Z,13.80
2023-01-01T22:59:31.782Z,13.80
2023-01-01T23:02:00.481Z,13.80
2023-01-01T23:04:28.215Z,13.80
2023-01-01T23:06:56.142Z,13.80
2023-01-01T23:09:24.964Z,13.80
2023-01-01T23:11:56.027Z,13.80
2023-01-01T23:14:43.141Z,13.80
2023-01-01T23:17:10.991Z,13.80
2023-01-01T23:19:38.756Z,13.80
2023-01-01T23:22:07.061Z,13.80
2023-01-01T23:24:35.573Z,13.80
2023-01-01T23:27:04.606Z,13.80
2023-01-01T23:29:34.167Z,13.80
2023-01-01T23:32:03.315Z,13.80
2023-01-01T23:34:31.315Z,13.80
2023-01-01T23:36:59.217Z,13.80
2023-01-01T23:39:26.943Z,13.80
2023-01-01T23:41:54.760Z,13.90
2023-01-01T23:44:22.481Z,13.90
2023-01-01T23:46:52.437Z,13.90
2023-01-01T23:49:21.829Z,14.00
2023-01-01T23:51:50.042Z,14.00
2023-01-01T23:54:17.813Z,13.90
2023-01-01T23:56:45.596Z,14.00
2023-01-01T23:59:13.494Z,14.00
